sensor_id;sensor_type;location;lat;lon;timestamp;pressure;altitude;pressure_sealevel;temperature;humidity
48630;BME280;34426;52.180;4.462;2023-04-20T00:01:55;102541.13;;;8.70;42.82
48630;BME280;34426;52.180;4.462;2023-04-20T00:04:20;102533.59;;;8.71;42.74
48630;BME280;34426;52.180;4.462;2023-04-20T00:06:47;102531.47;;;8.73;43.06
48630;BME280;34426;52.180;4.462;2023-04-20T00:09:13;102522.00;;;8.74;44.50
48630;BME280;34426;52.180;4.462;2023-04-20T00:11:38;102525.44;;;8.76;43.87
48630;BME280;34426;52.180;4.462;2023-04-20T00:14:04;102522.47;;;8.64;43.12
48630;BME280;34426;52.180;4.462;2023-04-20T00:16:30;102522.44;;;8.71;43.88
48630;BME280;34426;52.180;4.462;2023-04-20T00:18:55;102519.00;;;8.68;44.62
48630;BME280;34426;52.180;4.462;2023-04-20T00:21:21;102515.81;;;8.65;44.57
48630;BME280;34426;52.180;4.462;2023-04-20T00:23:48;102515.41;;;8.61;44.25
48630;BME280;34426;52.180;4.462;2023-04-20T00:26:14;102513.03;;;8.58;45.59
48630;BME280;34426;52.180;4.462;2023-04-20T00:28:39;102507.88;;;8.55;44.73
48630;BME280;34426;52.180;4.462;2023-04-20T00:31:05;102509.38;;;8.51;45.98
48630;BME280;34426;52.180;4.462;2023-04-20T00:33:30;102516.44;;;8.47;45.87
48630;BME280;34426;52.180;4.462;2023-04-20T00:35:56;102509.78;;;8.42;46.07
48630;BME280;34426;52.180;4.462;2023-04-20T00:38:21;102507.00;;;8.42;46.05
48630;BME280;34426;52.180;4.462;2023-04-20T00:40:48;102507.00;;;8.42;46.29
48630;BME280;34426;52.180;4.462;2023-04-20T00:43:13;102510.84;;;8.34;45.25
48630;BME280;34426;52.180;4.462;2023-04-20T00:45:39;102502.50;;;8.34;47.23
48630;BME280;34426;52.180;4.462;2023-04-20T00:48:05;102501.38;;;8.28;47.81
48630;BME280;34426;52.180;4.462;2023-04-20T00:50:32;102501.38;;;8.22;48.22
48630;BME280;34426;52.180;4.462;2023-04-20T00:52:58;102499.44;;;8.29;49.64
48630;BME280;34426;52.180;4.462;2023-04-20T00:55:23;102499.69;;;8.21;50.24
48630;BME280;34426;52.180;4.462;2023-04-20T00:57:51;102490.03;;;8.17;50.15
48630;BME280;34426;52.180;4.462;2023-04-20T01:00:17;102495.78;;;8.09;49.86
48630;BME280;34426;52.180;4.462;2023-04-20T01:02:42;102482.06;;;8.14;51.74
48630;BME280;34426;52.180;4.462;2023-04-20T01:05:08;102482.69;;;8.02;50.78
48630;BME280;34426;52.180;4.462;2023-04-20T01:07:33;102481.84;;;8.09;52.53
48630;BME280;34426;52.180;4.462;2023-04-20T01:09:59;102473.69;;;8.00;51.61
48630;BME280;34426;52.180;4.462;2023-04-20T01:12:24;102465.72;;;7.84;53.09
48630;BME280;34426;52.180;4.462;2023-04-20T01:14:51;102469.16;;;7.86;53.40
48630;BME280;34426;52.180;4.462;2023-04-20T01:17:17;102459.06;;;7.72;53.51
48630;BME280;34426;52.180;4.462;2023-04-20T01:19:42;102459.28;;;7.71;53.95
48630;BME280;34426;52.180;4.462;2023-04-20T01:22:13;102450.66;;;7.59;54.70
48630;BME280;34426;52.180;4.462;2023-04-20T01:24:39;102452.78;;;7.57;55.25
48630;BME280;34426;52.180;4.462;2023-04-20T01:27:04;102443.72;;;7.42;55.23
48630;BME280;34426;52.180;4.462;2023-04-20T01:29:30;102447.41;;;7.49;56.56
48630;BME280;34426;52.180;4.462;2023-04-20T01:31:55;102433.47;;;7.36;56.60
48630;BME280;34426;52.180;4.462;2023-04-20T01:34:21;102429.38;;;7.31;56.70
48630;BME280;34426;52.180;4.462;2023-04-20T01:36:46;102431.69;;;7.21;57.33
48630;BME280;34426;52.180;4.462;2023-04-20T01:39:13;102426.13;;;7.21;57.88
48630;BME280;34426;52.180;4.462;2023-04-20T01:41:39;102420.47;;;7.08;58.65
48630;BME280;34426;52.180;4.462;2023-04-20T01:44:04;102422.16;;;7.03;59.67
48630;BME280;34426;52.180;4.462;2023-04-20T01:46:30;102413.56;;;6.97;60.06
48630;BME280;34426;52.180;4.462;2023-04-20T01:48:55;102411.84;;;6.90;60.95
48630;BME280;34426;52.180;4.462;2023-04-20T01:51:21;102404.13;;;6.85;61.05
48630;BME280;34426;52.180;4.462;2023-04-20T01:53:46;102404.97;;;6.86;61.49
48630;BME280;34426;52.180;4.462;2023-04-20T01:56:13;102408.81;;;6.85;62.48
48630;BME280;34426;52.180;4.462;2023-04-20T01:58:38;102405.38;;;6.83;64.12
48630;BME280;34426;52.180;4.462;2023-04-20T02:01:04;102405.34;;;6.76;63.65
48630;BME280;34426;52.180;4.462;2023-04-20T02:03:29;102403.25;;;6.85;63.73
48630;BME280;34426;52.180;4.462;2023-04-20T02:05:55;102402.59;;;6.83;63.94
48630;BME280;34426;52.180;4.462;2023-04-20T02:08:21;102397.44;;;6.80;63.83
48630;BME280;34426;52.180;4.462;2023-04-20T02:10:46;102396.38;;;6.81;63.90
48630;BME280;34426;52.180;4.462;2023-04-20T02:13:13;102391.69;;;6.81;64.24
48630;BME280;34426;52.180;4.462;2023-04-20T02:15:38;102390.81;;;6.81;63.94
48630;BME280;34426;52.180;4.462;2023-04-20T02:18:04;102386.94;;;6.75;63.84
48630;BME280;34426;52.180;4.462;2023-04-20T02:20:30;102390.81;;;6.81;64.00
48630;BME280;34426;52.180;4.462;2023-04-20T02:22:55;102386.38;;;6.86;64.08
48630;BME280;34426;52.180;4.462;2023-04-20T02:25:20;102388.44;;;6.78;64.16
48630;BME280;34426;52.180;4.462;2023-04-20T02:27:46;102380.16;;;6.84;63.77
48630;BME280;34426;52.180;4.462;2023-04-20T02:30:13;102378.38;;;6.77;63.88
48630;BME280;34426;52.180;4.462;2023-04-20T02:32:39;102374.53;;;6.78;64.62
48630;BME280;34426;52.180;4.462;2023-04-20T02:35:05;102367.84;;;6.65;64.85
48630;BME280;34426;52.180;4.462;2023-04-20T02:37:30;102369.50;;;6.60;64.42
48630;BME280;34426;52.180;4.462;2023-04-20T02:39:56;102362.44;;;6.57;65.43
48630;BME280;34426;52.180;4.462;2023-04-20T02:42:21;102361.16;;;6.60;65.66
48630;BME280;34426;52.180;4.462;2023-04-20T02:44:47;102358.16;;;6.55;65.45
48630;BME280;34426;52.180;4.462;2023-04-20T02:47:14;102354.09;;;6.57;66.37
48630;BME280;34426;52.180;4.462;2023-04-20T02:49:39;102353.03;;;6.58;66.99
48630;BME280;34426;52.180;4.462;2023-04-20T02:52:05;102354.31;;;6.56;67.05
48630;BME280;34426;52.180;4.462;2023-04-20T02:54:30;102351.31;;;6.57;67.17
48630;BME280;34426;52.180;4.462;2023-04-20T02:56:56;102350.88;;;6.54;67.36
48630;BME280;34426;52.180;4.462;2023-04-20T02:59:21;102353.84;;;6.52;67.90
48630;BME280;34426;52.180;4.462;2023-04-20T03:01:47;102339.78;;;6.60;67.96
48630;BME280;34426;52.180;4.462;2023-04-20T03:04:13;102345.56;;;6.59;68.31
48630;BME280;34426;52.180;4.462;2023-04-20T03:06:39;102338.47;;;6.56;68.60
48630;BME280;34426;52.180;4.462;2023-04-20T03:09:04;102343.69;;;6.66;68.68
48630;BME280;34426;52.180;4.462;2023-04-20T03:11:30;102331.03;;;6.63;68.53
48630;BME280;34426;52.180;4.462;2023-04-20T03:13:55;102337.50;;;6.71;69.02
48630;BME280;34426;52.180;4.462;2023-04-20T03:16:21;102337.25;;;6.65;68.93
48630;BME280;34426;52.180;4.462;2023-04-20T03:18:46;102330.22;;;6.70;68.82
48630;BME280;34426;52.180;4.462;2023-04-20T03:21:13;102330.38;;;6.61;69.17
48630;BME280;34426;52.180;4.462;2023-04-20T03:23:39;102323.91;;;6.48;69.53
48630;BME280;34426;52.180;4.462;2023-04-20T03:26:04;102323.53;;;6.57;69.90
48630;BME280;34426;52.180;4.462;2023-04-20T03:28:30;102320.28;;;6.47;69.81
48630;BME280;34426;52.180;4.462;2023-04-20T03:30:55;102310.63;;;6.43;69.59
48630;BME280;34426;52.180;4.462;2023-04-20T03:33:21;102310.22;;;6.46;70.33
48630;BME280;34426;52.180;4.462;2023-04-20T03:35:46;102309.16;;;6.47;70.40
48630;BME280;34426;52.180;4.462;2023-04-20T03:38:13;102311.09;;;6.53;70.14
48630;BME280;34426;52.180;4.462;2023-04-20T03:40:38;102308.59;;;6.65;70.49
48630;BME280;34426;52.180;4.462;2023-04-20T03:43:04;102294.97;;;6.77;69.65
48630;BME280;34426;52.180;4.462;2023-04-20T03:45:29;102296.31;;;6.87;69.76
48630;BME280;34426;52.180;4.462;2023-04-20T03:47:55;102296.28;;;6.94;69.34
48630;BME280;34426;52.180;4.462;2023-04-20T03:50:20;102289.66;;;6.95;69.24
48630;BME280;34426;52.180;4.462;2023-04-20T03:52:46;102292.47;;;7.01;69.62
48630;BME280;34426;52.180;4.462;2023-04-20T03:55:12;102283.72;;;7.11;68.43
48630;BME280;34426;52.180;4.462;2023-04-20T03:57:38;102279.88;;;7.12;69.27
48630;BME280;34426;52.180;4.462;2023-04-20T04:00:04;102269.84;;;7.18;67.86
48630;BME280;34426;52.180;4.462;2023-04-20T04:02:30;102272.00;;;7.22;68.17
48630;BME280;34426;52.180;4.462;2023-04-20T04:04:55;102273.50;;;7.25;68.19
48630;BME280;34426;52.180;4.462;2023-04-20T04:07:21;102267.09;;;7.31;67.33
48630;BME280;34426;52.180;4.462;2023-04-20T04:09:46;102262.38;;;7.45;67.21
48630;BME280;34426;52.180;4.462;2023-04-20T04:12:13;102263.44;;;7.44;66.62
48630;BME280;34426;52.180;4.462;2023-04-20T04:14:39;102260.44;;;7.52;67.00
48630;BME280;34426;52.180;4.462;2023-04-20T04:17:04;102259.59;;;7.64;66.78
48630;BME280;34426;52.180;4.462;2023-04-20T04:19:29;102258.31;;;7.67;66.89
48630;BME280;34426;52.180;4.462;2023-04-20T04:21:55;102256.63;;;7.73;66.62
48630;BME280;34426;52.180;4.462;2023-04-20T04:24:20;102252.13;;;7.72;66.35
48630;BME280;34426;52.180;4.462;2023-04-20T04:26:46;102249.50;;;7.83;66.89
48630;BME280;34426;52.180;4.462;2023-04-20T04:29:13;102248.88;;;7.81;66.54
48630;BME280;34426;52.180;4.462;2023-04-20T04:31:38;102239.66;;;7.87;67.02
48630;BME280;34426;52.180;4.462;2023-04-20T04:34:04;102227.44;;;7.95;67.04
48630;BME280;34426;52.180;4.462;2023-04-20T04:36:29;102226.56;;;7.94;66.69
48630;BME280;34426;52.180;4.462;2023-04-20T04:38:55;102236.00;;;7.93;66.75
48630;BME280;34426;52.180;4.462;2023-04-20T04:41:20;102223.56;;;7.89;67.14
48630;BME280;34426;52.180;4.462;2023-04-20T04:43:46;102222.72;;;7.82;67.01
48630;BME280;34426;52.180;4.462;2023-04-20T04:46:12;102219.50;;;7.85;67.20
48630;BME280;34426;52.180;4.462;2023-04-20T04:48:39;102213.28;;;7.83;67.45
48630;BME280;34426;52.180;4.462;2023-04-20T04:51:04;102210.06;;;7.93;67.07
48630;BME280;34426;52.180;4.462;2023-04-20T04:53:30;102205.34;;;7.93;68.10
48630;BME280;34426;52.180;4.462;2023-04-20T04:55:55;102209.22;;;7.86;68.41
48630;BME280;34426;52.180;4.462;2023-04-20T04:58:21;102210.50;;;7.83;68.30
48630;BME280;34426;52.180;4.462;2023-04-20T05:00:46;102206.66;;;7.84;68.66
48630;BME280;34426;52.180;4.462;2023-04-20T05:03:13;102213.75;;;7.74;69.62
48630;BME280;34426;52.180;4.462;2023-04-20T05:05:39;102206.00;;;7.82;69.69
48630;BME280;34426;52.180;4.462;2023-04-20T05:08:04;102206.88;;;7.83;70.31
48630;BME280;34426;52.180;4.462;2023-04-20T05:10:30;102202.38;;;7.88;70.21
48630;BME280;34426;52.180;4.462;2023-04-20T05:12:55;102199.56;;;8.01;70.07
48630;BME280;34426;52.180;4.462;2023-04-20T05:15:21;102200.63;;;8.00;70.89
48630;BME280;34426;52.180;4.462;2023-04-20T05:17:46;102207.47;;;8.05;70.61
48630;BME280;34426;52.180;4.462;2023-04-20T05:20:13;102205.97;;;8.09;70.70
48630;BME280;34426;52.180;4.462;2023-04-20T05:22:39;102204.69;;;8.11;70.48
48630;BME280;34426;52.180;4.462;2023-04-20T05:25:05;102196.75;;;8.15;70.27
48630;BME280;34426;52.180;4.462;2023-04-20T05:27:31;102195.03;;;8.14;70.98
48630;BME280;34426;52.180;4.462;2023-04-20T05:29:57;102200.38;;;8.15;70.80
48630;BME280;34426;52.180;4.462;2023-04-20T05:32:23;102198.25;;;8.17;71.01
48630;BME280;34426;52.180;4.462;2023-04-20T05:34:48;102193.31;;;8.19;70.56
48630;BME280;34426;52.180;4.462;2023-04-20T05:37:15;102187.31;;;8.16;70.97
48630;BME280;34426;52.180;4.462;2023-04-20T05:39:44;102183.66;;;8.22;71.41
48630;BME280;34426;52.180;4.462;2023-04-20T05:42:09;102177.44;;;8.20;71.81
48630;BME280;34426;52.180;4.462;2023-04-20T05:44:35;102180.00;;;8.21;72.05
48630;BME280;34426;52.180;4.462;2023-04-20T05:47:00;102172.66;;;8.27;71.46
48630;BME280;34426;52.180;4.462;2023-04-20T05:49:26;102173.31;;;8.36;71.22
48630;BME280;34426;52.180;4.462;2023-04-20T05:51:52;102172.44;;;8.42;71.20
48630;BME280;34426;52.180;4.462;2023-04-20T05:54:19;102179.72;;;8.43;71.17
48630;BME280;34426;52.180;4.462;2023-04-20T05:56:44;102174.13;;;8.49;70.35
48630;BME280;34426;52.180;4.462;2023-04-20T05:59:10;102172.84;;;8.45;71.40
48630;BME280;34426;52.180;4.462;2023-04-20T06:01:35;102174.13;;;8.49;70.75
48630;BME280;34426;52.180;4.462;2023-04-20T06:04:01;102174.13;;;8.49;71.14
48630;BME280;34426;52.180;4.462;2023-04-20T06:06:26;102177.94;;;8.55;70.43
48630;BME280;34426;52.180;4.462;2023-04-20T06:08:52;102179.44;;;8.57;70.65
48630;BME280;34426;52.180;4.462;2023-04-20T06:11:19;102172.16;;;8.56;71.01
48630;BME280;34426;52.180;4.462;2023-04-20T06:13:44;102177.09;;;8.54;70.39
48630;BME280;34426;52.180;4.462;2023-04-20T06:16:10;102162.97;;;8.49;70.92
48630;BME280;34426;52.180;4.462;2023-04-20T06:18:35;102172.78;;;8.58;70.03
48630;BME280;34426;52.180;4.462;2023-04-20T06:21:01;102174.50;;;8.59;69.44
48630;BME280;34426;52.180;4.462;2023-04-20T06:23:27;102169.34;;;8.56;68.18
48630;BME280;34426;52.180;4.462;2023-04-20T06:25:52;102171.47;;;8.61;68.62
48630;BME280;34426;52.180;4.462;2023-04-20T06:28:19;102171.94;;;8.58;68.11
48630;BME280;34426;52.180;4.462;2023-04-20T06:30:45;102166.13;;;8.59;66.46
48630;BME280;34426;52.180;4.462;2023-04-20T06:33:11;102163.31;;;8.66;65.18
48630;BME280;34426;52.180;4.462;2023-04-20T06:35:38;102159.75;;;8.84;64.43
48630;BME280;34426;52.180;4.462;2023-04-20T06:38:04;102159.25;;;8.93;64.42
48630;BME280;34426;52.180;4.462;2023-04-20T06:40:29;102162.50;;;8.90;63.96
48630;BME280;34426;52.180;4.462;2023-04-20T06:42:55;102168.25;;;8.95;63.58
48630;BME280;34426;52.180;4.462;2023-04-20T06:45:22;102166.53;;;8.94;63.65
48630;BME280;34426;52.180;4.462;2023-04-20T06:47:47;102160.28;;;8.99;62.63
48630;BME280;34426;52.180;4.462;2023-04-20T06:50:12;102152.59;;;8.94;61.68
48630;BME280;34426;52.180;4.462;2023-04-20T06:52:39;102145.47;;;8.98;62.12
48630;BME280;34426;52.180;4.462;2023-04-20T06:55:05;102146.22;;;9.12;61.82
48630;BME280;34426;52.180;4.462;2023-04-20T06:57:30;102140.19;;;9.15;62.03
48630;BME280;34426;52.180;4.462;2023-04-20T06:59:56;102129.38;;;9.25;62.08
48630;BME280;34426;52.180;4.462;2023-04-20T07:02:22;102130.72;;;9.41;61.24
48630;BME280;34426;52.180;4.462;2023-04-20T07:04:48;102120.34;;;9.48;62.98
48630;BME280;34426;52.180;4.462;2023-04-20T07:07:13;102114.00;;;9.59;62.87
48630;BME280;34426;52.180;4.462;2023-04-20T07:09:39;102119.66;;;9.53;61.43
48630;BME280;34426;52.180;4.462;2023-04-20T07:12:04;102130.97;;;9.58;61.89
48630;BME280;34426;52.180;4.462;2023-04-20T07:14:30;102135.31;;;9.54;60.87
48630;BME280;34426;52.180;4.462;2023-04-20T07:16:55;102136.09;;;9.43;61.99
48630;BME280;34426;52.180;4.462;2023-04-20T07:19:22;102128.06;;;9.53;61.03
48630;BME280;34426;52.180;4.462;2023-04-20T07:21:48;102125.38;;;9.40;62.49
48630;BME280;34426;52.180;4.462;2023-04-20T07:24:13;102124.22;;;9.47;62.00
48630;BME280;34426;52.180;4.462;2023-04-20T07:26:39;102126.00;;;9.60;61.66
48630;BME280;34426;52.180;4.462;2023-04-20T07:29:04;102126.41;;;9.63;62.21
48630;BME280;34426;52.180;4.462;2023-04-20T07:31:29;102132.91;;;9.57;62.08
48630;BME280;34426;52.180;4.462;2023-04-20T07:33:55;102128.63;;;9.55;62.76
48630;BME280;34426;52.180;4.462;2023-04-20T07:36:22;102132.22;;;9.44;63.57
48630;BME280;34426;52.180;4.462;2023-04-20T07:38:48;102134.72;;;9.52;63.19
48630;BME280;34426;52.180;4.462;2023-04-20T07:41:13;102120.59;;;9.47;62.70
48630;BME280;34426;52.180;4.462;2023-04-20T07:43:39;102121.09;;;9.37;62.52
48630;BME280;34426;52.180;4.462;2023-04-20T07:46:04;102122.75;;;9.45;62.13
48630;BME280;34426;52.180;4.462;2023-04-20T07:48:30;102133.69;;;9.46;61.72
48630;BME280;34426;52.180;4.462;2023-04-20T07:50:55;102142.25;;;9.26;62.01
48630;BME280;34426;52.180;4.462;2023-04-20T07:53:22;102124.13;;;9.36;60.52
48630;BME280;34426;52.180;4.462;2023-04-20T07:55:48;102128.56;;;9.18;60.37
48630;BME280;34426;52.180;4.462;2023-04-20T07:58:13;102131.53;;;9.23;60.98
48630;BME280;34426;52.180;4.462;2023-04-20T08:00:39;102120.81;;;9.20;60.59
48630;BME280;34426;52.180;4.462;2023-04-20T08:03:04;102132.97;;;9.32;58.68
48630;BME280;34426;52.180;4.462;2023-04-20T08:05:30;102135.00;;;9.19;58.74
48630;BME280;34426;52.180;4.462;2023-04-20T08:07:55;102135.00;;;9.19;57.60
48630;BME280;34426;52.180;4.462;2023-04-20T08:10:22;102129.16;;;9.02;60.04
48630;BME280;34426;52.180;4.462;2023-04-20T08:12:48;102131.81;;;8.90;61.07
48630;BME280;34426;52.180;4.462;2023-04-20T08:15:13;102125.81;;;8.87;62.22
48630;BME280;34426;52.180;4.462;2023-04-20T08:17:39;102123.78;;;8.69;64.99
48630;BME280;34426;52.180;4.462;2023-04-20T08:20:05;102121.75;;;8.51;67.45
48630;BME280;34426;52.180;4.462;2023-04-20T08:22:31;102139.78;;;8.49;68.23
48630;BME280;34426;52.180;4.462;2023-04-20T08:24:57;102136.84;;;8.30;69.46
48630;BME280;34426;52.180;4.462;2023-04-20T08:27:24;102133.63;;;8.27;70.67
48630;BME280;34426;52.180;4.462;2023-04-20T08:29:50;102133.47;;;8.22;72.91
48630;BME280;34426;52.180;4.462;2023-04-20T08:32:15;102132.00;;;8.13;72.87
48630;BME280;34426;52.180;4.462;2023-04-20T08:34:41;102130.50;;;8.17;73.06
48630;BME280;34426;52.180;4.462;2023-04-20T08:37:07;102131.84;;;8.01;73.46
48630;BME280;34426;52.180;4.462;2023-04-20T08:39:32;102137.00;;;7.97;74.95
48630;BME280;34426;52.180;4.462;2023-04-20T08:41:58;102134.44;;;7.89;74.91
48630;BME280;34426;52.180;4.462;2023-04-20T08:44:26;102132.34;;;7.78;74.72
48630;BME280;34426;52.180;4.462;2023-04-20T08:46:52;102135.78;;;7.67;75.70
48630;BME280;34426;52.180;4.462;2023-04-20T08:49:18;102135.75;;;7.80;75.43
48630;BME280;34426;52.180;4.462;2023-04-20T08:51:45;102133.66;;;7.69;76.13
48630;BME280;34426;52.180;4.462;2023-04-20T08:54:12;102124.22;;;7.70;77.47
48630;BME280;34426;52.180;4.462;2023-04-20T08:56:39;102112.69;;;7.60;78.82
48630;BME280;34426;52.180;4.462;2023-04-20T08:59:05;102108.81;;;7.61;78.28
48630;BME280;34426;52.180;4.462;2023-04-20T09:01:32;102114.78;;;7.71;78.29
48630;BME280;34426;52.180;4.462;2023-04-20T09:03:58;102107.94;;;7.67;78.63
48630;BME280;34426;52.180;4.462;2023-04-20T09:06:24;102097.03;;;7.72;78.58
48630;BME280;34426;52.180;4.462;2023-04-20T09:08:49;102084.41;;;7.63;78.63
48630;BME280;34426;52.180;4.462;2023-04-20T09:11:22;102100.03;;;7.57;79.24
48630;BME280;34426;52.180;4.462;2023-04-20T09:13:57;102093.16;;;7.66;78.56
48630;BME280;34426;52.180;4.462;2023-04-20T09:16:22;102100.69;;;7.53;79.46
48630;BME280;34426;52.180;4.462;2023-04-20T09:18:52;102100.91;;;7.58;79.06
48630;BME280;34426;52.180;4.462;2023-04-20T09:21:17;102106.44;;;7.71;78.56
48630;BME280;34426;52.180;4.462;2023-04-20T09:23:54;102101.75;;;7.65;78.39
48630;BME280;34426;52.180;4.462;2023-04-20T09:26:20;102107.94;;;7.67;78.57
48630;BME280;34426;52.180;4.462;2023-04-20T09:28:45;102105.41;;;7.59;79.30
48630;BME280;34426;52.180;4.462;2023-04-20T09:31:16;102109.47;;;7.56;78.58
48630;BME280;34426;52.180;4.462;2023-04-20T09:33:42;102101.13;;;7.50;77.91
48630;BME280;34426;52.180;4.462;2023-04-20T09:36:09;102096.44;;;7.44;78.34
48630;BME280;34426;52.180;4.462;2023-04-20T09:38:34;102087.41;;;7.48;79.20
48630;BME280;34426;52.180;4.462;2023-04-20T09:41:00;102090.81;;;7.70;78.64
48630;BME280;34426;52.180;4.462;2023-04-20T09:43:27;102082.06;;;7.60;77.03
48630;BME280;34426;52.180;4.462;2023-04-20T09:45:53;102078.28;;;7.92;76.24
48630;BME280;34426;52.180;4.462;2023-04-20T09:48:19;102086.16;;;8.09;75.96
48630;BME280;34426;52.180;4.462;2023-04-20T09:50:46;102089.38;;;8.06;76.23
48630;BME280;34426;52.180;4.462;2023-04-20T09:53:15;102079.31;;;8.05;75.82
48630;BME280;34426;52.180;4.462;2023-04-20T09:55:44;102086.34;;;8.14;75.60
48630;BME280;34426;52.180;4.462;2023-04-20T09:58:10;102065.44;;;8.29;76.62
48630;BME280;34426;52.180;4.462;2023-04-20T10:00:36;102061.75;;;8.42;75.64
48630;BME280;34426;52.180;4.462;2023-04-20T10:03:02;102054.84;;;8.51;75.43
48630;BME280;34426;52.180;4.462;2023-04-20T10:05:34;102055.59;;;8.65;73.87
48630;BME280;34426;52.180;4.462;2023-04-20T10:08:00;102069.31;;;8.66;73.04
48630;BME280;34426;52.180;4.462;2023-04-20T10:10:27;102064.88;;;8.84;72.79
48630;BME280;34426;52.180;4.462;2023-04-20T10:12:54;102057.16;;;8.86;73.13
48630;BME280;34426;52.180;4.462;2023-04-20T10:15:21;102056.97;;;8.81;72.59
48630;BME280;34426;52.180;4.462;2023-04-20T10:17:47;102053.38;;;8.74;72.11
48630;BME280;34426;52.180;4.462;2023-04-20T10:20:20;102055.94;;;8.75;72.69
48630;BME280;34426;52.180;4.462;2023-04-20T10:22:46;102060.44;;;8.76;70.60
48630;BME280;34426;52.180;4.462;2023-04-20T10:25:16;102050.06;;;8.58;72.19
48630;BME280;34426;52.180;4.462;2023-04-20T10:27:55;102053.66;;;9.15;70.28
48630;BME280;34426;52.180;4.462;2023-04-20T10:30:22;102042.06;;;9.73;69.04
48630;BME280;34426;52.180;4.462;2023-04-20T10:32:47;102035.00;;;9.89;69.89
48630;BME280;34426;52.180;4.462;2023-04-20T10:35:13;102033.34;;;9.99;68.32
48630;BME280;34426;52.180;4.462;2023-04-20T10:37:47;102033.00;;;9.78;68.25
48630;BME280;34426;52.180;4.462;2023-04-20T10:40:13;102042.31;;;9.72;69.01
48630;BME280;34426;52.180;4.462;2023-04-20T10:42:42;102039.81;;;9.82;66.77
48630;BME280;34426;52.180;4.462;2023-04-20T10:45:10;102044.38;;;9.58;68.43
48630;BME280;34426;52.180;4.462;2023-04-20T10:47:35;102039.75;;;9.52;67.56
48630;BME280;34426;52.180;4.462;2023-04-20T10:50:08;102044.94;;;9.48;69.79
48630;BME280;34426;52.180;4.462;2023-04-20T10:52:35;102042.31;;;9.90;69.46
48630;BME280;34426;52.180;4.462;2023-04-20T10:55:01;102038.00;;;10.24;67.32
48630;BME280;34426;52.180;4.462;2023-04-20T10:57:27;102044.50;;;10.18;65.95
48630;BME280;34426;52.180;4.462;2023-04-20T10:59:52;102038.44;;;10.02;65.21
48630;BME280;34426;52.180;4.462;2023-04-20T11:02:19;102036.28;;;10.23;66.08
48630;BME280;34426;52.180;4.462;2023-04-20T11:04:45;102030.75;;;10.46;65.16
48630;BME280;34426;52.180;4.462;2023-04-20T11:07:10;102025.34;;;10.63;66.05
48630;BME280;34426;52.180;4.462;2023-04-20T11:09:36;102020.88;;;10.97;63.47
48630;BME280;34426;52.180;4.462;2023-04-20T11:12:03;102010.91;;;11.24;63.21
48630;BME280;34426;52.180;4.462;2023-04-20T11:14:29;102003.19;;;11.55;63.12
48630;BME280;34426;52.180;4.462;2023-04-20T11:16:55;102012.88;;;11.76;61.67
48630;BME280;34426;52.180;4.462;2023-04-20T11:19:23;102007.81;;;12.13;60.77
48630;BME280;34426;52.180;4.462;2023-04-20T11:21:49;101992.16;;;12.17;57.88
48630;BME280;34426;52.180;4.462;2023-04-20T11:24:18;102008.09;;;11.99;58.51
48630;BME280;34426;52.180;4.462;2023-04-20T11:26:43;101994.56;;;11.96;59.34
48630;BME280;34426;52.180;4.462;2023-04-20T11:29:09;101994.75;;;11.78;58.31
48630;BME280;34426;52.180;4.462;2023-04-20T11:31:34;101991.06;;;11.89;58.74
48630;BME280;34426;52.180;4.462;2023-04-20T11:34:00;101987.31;;;11.84;59.46
48630;BME280;34426;52.180;4.462;2023-04-20T11:36:27;101986.91;;;11.92;57.38
48630;BME280;34426;52.180;4.462;2023-04-20T11:38:53;101973.28;;;11.72;57.83
48630;BME280;34426;52.180;4.462;2023-04-20T11:41:18;101968.88;;;11.88;58.35
48630;BME280;34426;52.180;4.462;2023-04-20T11:43:44;101969.34;;;11.96;59.99
48630;BME280;34426;52.180;4.462;2023-04-20T11:46:13;101961.38;;;12.67;57.42
48630;BME280;34426;52.180;4.462;2023-04-20T11:48:39;101966.56;;;12.92;55.38
48630;BME280;34426;52.180;4.462;2023-04-20T11:51:05;101967.41;;;12.76;55.70
48630;BME280;34426;52.180;4.462;2023-04-20T11:53:32;101968.00;;;12.61;54.65
48630;BME280;34426;52.180;4.462;2023-04-20T11:55:57;101957.38;;;12.80;54.78
48630;BME280;34426;52.180;4.462;2023-04-20T11:58:23;101971.75;;;12.66;55.98
48630;BME280;34426;52.180;4.462;2023-04-20T12:00:48;101967.88;;;13.06;55.37
48630;BME280;34426;52.180;4.462;2023-04-20T12:03:14;101958.56;;;12.84;54.41
48630;BME280;34426;52.180;4.462;2023-04-20T12:05:39;101955.66;;;12.79;54.17
48630;BME280;34426;52.180;4.462;2023-04-20T12:08:05;101953.09;;;12.60;54.62
48630;BME280;34426;52.180;4.462;2023-04-20T12:10:32;101952.25;;;12.60;53.76
48630;BME280;34426;52.180;4.462;2023-04-20T12:12:57;101947.66;;;12.71;52.58
48630;BME280;34426;52.180;4.462;2023-04-20T12:15:23;101940.88;;;12.50;52.57
48630;BME280;34426;52.180;4.462;2023-04-20T12:17:48;101945.94;;;12.19;53.21
48630;BME280;34426;52.180;4.462;2023-04-20T12:20:14;101939.69;;;12.01;53.86
48630;BME280;34426;52.180;4.462;2023-04-20T12:22:39;101941.88;;;12.27;53.45
48630;BME280;34426;52.180;4.462;2023-04-20T12:25:06;101941.13;;;12.48;53.86
48630;BME280;34426;52.180;4.462;2023-04-20T12:27:33;101931.25;;;12.62;53.36
48630;BME280;34426;52.180;4.462;2023-04-20T12:29:58;101931.00;;;12.81;54.10
48630;BME280;34426;52.180;4.462;2023-04-20T12:32:24;101940.38;;;13.08;53.76
48630;BME280;34426;52.180;4.462;2023-04-20T12:34:49;101932.44;;;13.39;53.55
48630;BME280;34426;52.180;4.462;2023-04-20T12:37:15;101928.63;;;13.11;52.11
48630;BME280;34426;52.180;4.462;2023-04-20T12:39:40;101926.00;;;13.21;52.57
48630;BME280;34426;52.180;4.462;2023-04-20T12:42:05;101931.25;;;12.96;53.69
48630;BME280;34426;52.180;4.462;2023-04-20T12:44:33;101926.56;;;12.68;54.16
48630;BME280;34426;52.180;4.462;2023-04-20T12:46:58;101929.81;;;12.60;52.23
48630;BME280;34426;52.180;4.462;2023-04-20T12:49:30;101922.06;;;12.33;53.33
48630;BME280;34426;52.180;4.462;2023-04-20T12:51:55;101929.44;;;12.23;53.72